Аэропорт: Домодедово. Москва

ICAO: UUDD

METAR:
2018/09/23 11:00
UUDD 231100Z 26005MPS 9999 BKN014 11/07 Q1010 R88/290095 NOSIG
METAR:
2018/09/23 09:22
TAF UUDD 230756Z 2309/2415 28007MPS 6000 -RA OVC011 TX14/2312Z TN06/2402Z 
      TEMPO 2309/2312 28012MPS 3100 -SHRA BKN004 BKN012CB 
     FM231500 22004MPS 5000 BR SCT011 PROB40 
      TEMPO 2320/2406 0300 FG SCT002 
      BECMG 2406/2408 19009G14MPS 9999 NSW 
      TEMPO 2411/2415 13010G16MPS 3100 -SHRA BKN005 BKN010CB